Time;durP1;ratioP1;P1;durP2;ratioP2;P2;SDS_P1;SDS_P2;PMS_P1;PMS_P2;Temp;Humidity;BMP_temperature;BMP_pressure;BME280_temperature;BME280_humidity;BME280_pressure;Samples;Min_cycle;Max_cycle;Signal;HPM_P1;HPM_P2
2023/09/07 00:04:33;;;;;;;5.22;2.35;;;31.20;62.60;;;;;;10519583;28;20134;-37
2023/09/07 00:09:35;;;;;;;3.05;2.42;;;31.20;62.60;;;;;;10526190;28;20138;-35
2023/09/07 00:14:38;;;;;;;3.00;2.10;;;31.20;62.60;;;;;;10523157;28;20135;-33
2023/09/07 00:19:40;;;;;;;4.90;2.42;;;31.10;62.70;;;;;;10534378;28;20048;-35
2023/09/07 00:24:41;;;;;;;4.45;2.58;;;31.10;62.70;;;;;;10522365;28;20044;-40
2023/09/07 00:29:45;;;;;;;4.25;2.30;;;31.00;62.60;;;;;;10530141;28;20175;-36
2023/09/07 00:34:47;;;;;;;4.80;2.78;;;31.00;62.70;;;;;;10526425;28;20133;-32
2023/09/07 00:39:49;;;;;;;3.33;2.13;;;30.90;62.70;;;;;;10531993;28;20048;-35
2023/09/07 00:44:52;;;;;;;2.45;2.10;;;30.90;62.70;;;;;;10530385;28;20130;-34
2023/09/07 00:49:55;;;;;;;2.90;2.50;;;30.90;62.80;;;;;;10536615;28;20068;-33
2023/09/07 00:54:57;;;;;;;2.42;2.10;;;30.90;62.80;;;;;;10516493;28;20109;-37
2023/09/07 01:00:00;;;;;;;5.50;2.17;;;30.80;62.70;;;;;;10537883;28;20045;-37
2023/09/07 01:05:04;;;;;;;4.18;2.28;;;30.80;62.70;;;;;;10520291;28;20131;-34
2023/09/07 01:10:07;;;;;;;3.75;2.38;;;30.70;62.70;;;;;;10510653;28;20059;-36
2023/09/07 01:15:11;;;;;;;2.63;1.90;;;30.70;62.80;;;;;;10505750;28;20048;-34
2023/09/07 01:20:16;;;;;;;2.50;2.28;;;30.70;62.80;;;;;;10511367;28;20476;-38
2023/09/07 01:25:20;;;;;;;2.95;2.42;;;30.60;62.80;;;;;;10514532;28;20048;-39
2023/09/07 01:30:22;;;;;;;2.58;2.15;;;30.60;62.80;;;;;;10518495;28;20044;-37
2023/09/07 01:35:25;;;;;;;2.10;1.90;;;30.50;62.70;;;;;;10526643;28;20121;-32
2023/09/07 01:40:28;;;;;;;2.58;1.80;;;30.50;62.80;;;;;;10521319;28;20153;-37
2023/09/07 01:45:30;;;;;;;2.80;2.20;;;30.50;62.80;;;;;;10524506;28;20133;-34
2023/09/07 01:50:32;;;;;;;2.75;2.20;;;30.50;62.80;;;;;;10516833;28;20068;-37
2023/09/07 01:55:35;;;;;;;4.07;2.05;;;30.40;62.70;;;;;;10524373;28;20556;-35
2023/09/07 02:00:38;;;;;;;2.47;1.83;;;30.40;62.70;;;;;;10511067;28;20063;-31
2023/09/07 02:05:40;;;;;;;2.88;2.45;;;30.40;62.80;;;;;;10528770;28;20142;-33
2023/09/07 02:10:43;;;;;;;4.50;2.15;;;30.30;62.90;;;;;;10511745;28;20044;-37
2023/09/07 02:15:45;;;;;;;2.05;1.70;;;30.30;62.90;;;;;;10523204;28;20560;-36
2023/09/07 02:20:47;;;;;;;3.85;2.05;;;30.20;62.80;;;;;;10511152;28;20180;-39
2023/09/07 02:25:51;;;;;;;2.97;2.17;;;30.30;62.80;;;;;;10507207;28;20052;-33
2023/09/07 02:30:53;;;;;;;2.88;2.05;;;30.20;62.80;;;;;;10513104;28;20140;-38
2023/09/07 02:35:55;;;;;;;3.17;2.03;;;30.10;62.80;;;;;;10521700;28;20048;-36
2023/09/07 02:40:59;;;;;;;1.98;1.70;;;30.10;63.00;;;;;;10537426;28;20070;-33
2023/09/07 02:46:00;;;;;;;6.22;2.50;;;30.10;62.90;;;;;;10519000;28;20125;-35
2023/09/07 02:51:03;;;;;;;2.15;1.95;;;30.10;62.90;;;;;;10528612;28;20063;-38
2023/09/07 02:56:07;;;;;;;2.45;2.10;;;30.00;62.90;;;;;;10518787;28;20058;-37
2023/09/07 03:15:30;;;;;;;2.50;2.10;;;29.80;62.70;;;;;;10548624;27;20116;-35
2023/09/07 03:20:34;;;;;;;2.30;2.10;;;29.80;63.30;;;;;;10561662;28;20039;-30
2023/09/07 03:25:36;;;;;;;2.33;2.05;;;29.80;63.20;;;;;;10557545;28;20050;-33
2023/09/07 03:30:40;;;;;;;4.32;2.55;;;29.80;63.10;;;;;;10565669;28;20082;-38
2023/09/07 03:35:42;;;;;;;3.47;2.33;;;29.80;63.10;;;;;;10562519;28;20059;-33
2023/09/07 03:40:44;;;;;;;2.70;2.15;;;29.80;63.10;;;;;;10564489;28;20217;-39
2023/09/07 03:45:47;;;;;;;3.53;2.17;;;29.70;63.10;;;;;;10547974;28;20125;-33
2023/09/07 03:50:49;;;;;;;2.40;2.17;;;29.60;63.10;;;;;;10554116;28;20135;-33
2023/09/07 03:55:51;;;;;;;2.40;2.20;;;29.70;63.10;;;;;;10564041;28;20055;-39
2023/09/07 04:00:54;;;;;;;3.53;2.50;;;29.70;63.10;;;;;;10561649;28;20071;-32
2023/09/07 04:05:56;;;;;;;2.22;2.00;;;29.60;63.00;;;;;;10564789;28;20131;-36
2023/09/07 04:10:57;;;;;;;4.07;2.72;;;29.60;63.10;;;;;;10564019;28;20671;-36
2023/09/07 04:16:00;;;;;;;2.53;2.25;;;29.60;63.10;;;;;;10545607;28;20066;-35
2023/09/07 04:21:06;;;;;;;3.45;2.35;;;29.60;63.10;;;;;;10559016;28;20040;-32
2023/09/07 04:26:08;;;;;;;2.70;2.22;;;29.50;63.10;;;;;;10529479;28;20079;-35
2023/09/07 04:31:12;;;;;;;4.00;2.30;;;29.50;63.00;;;;;;10534392;28;20097;-33
2023/09/07 04:36:15;;;;;;;4.32;2.72;;;29.50;62.90;;;;;;10517371;28;20040;-34
2023/09/07 04:41:17;;;;;;;2.92;2.35;;;29.50;62.70;;;;;;10530126;28;20068;-32
2023/09/07 04:46:23;;;;;;;4.00;2.65;;;29.40;62.50;;;;;;10525054;28;20146;-34
2023/09/07 04:51:25;;;;;;;4.28;2.63;;;29.40;62.40;;;;;;10523394;28;20439;-36
2023/09/07 04:56:28;;;;;;;4.28;2.80;;;29.30;62.10;;;;;;10523202;28;20039;-33
2023/09/07 05:01:32;;;;;;;2.90;2.58;;;29.30;62.10;;;;;;10523202;28;20040;-36
2023/09/07 05:06:37;;;;;;;2.50;2.25;;;29.30;62.50;;;;;;10527910;28;21471;-32
2023/09/07 05:11:38;;;;;;;3.30;2.53;;;29.30;62.90;;;;;;10529723;28;20408;-34
2023/09/07 05:16:43;;;;;;;3.15;2.70;;;29.30;63.10;;;;;;10536337;28;20071;-32
2023/09/07 05:21:45;;;;;;;3.88;2.70;;;29.20;63.30;;;;;;10529837;28;20079;-33
2023/09/07 05:26:47;;;;;;;6.85;3.10;;;29.20;63.50;;;;;;10525679;28;20681;-33
2023/09/07 05:31:50;;;;;;;3.10;2.33;;;29.20;63.40;;;;;;10531799;28;20066;-35
2023/09/07 05:36:52;;;;;;;4.90;2.90;;;29.20;63.40;;;;;;10522738;28;20048;-34
2023/09/07 05:41:54;;;;;;;4.72;2.92;;;29.10;63.30;;;;;;10531427;28;20079;-29
2023/09/07 05:46:58;;;;;;;3.35;2.72;;;29.20;63.30;;;;;;10525571;28;20469;-33
2023/09/07 05:52:00;;;;;;;6.25;2.85;;;29.10;63.20;;;;;;10509330;28;20184;-34
2023/09/07 05:57:01;;;;;;;5.45;2.60;;;29.10;63.20;;;;;;10528953;28;20039;-34
2023/09/07 06:02:05;;;;;;;3.30;2.67;;;29.20;63.10;;;;;;10522646;28;20139;-38
2023/09/07 06:07:07;;;;;;;5.60;2.67;;;29.10;63.00;;;;;;10531593;28;20068;-35
2023/09/07 06:12:08;;;;;;;4.43;2.60;;;29.20;63.00;;;;;;10529342;28;20051;-36
2023/09/07 06:17:11;;;;;;;3.38;2.40;;;29.20;62.90;;;;;;10528460;28;20142;-37
2023/09/07 06:22:13;;;;;;;3.85;2.50;;;29.20;62.80;;;;;;10536516;28;20169;-32
2023/09/07 06:27:15;;;;;;;5.45;3.20;;;29.20;62.70;;;;;;10520713;28;20048;-33
2023/09/07 06:32:19;;;;;;;7.82;3.15;;;29.10;62.60;;;;;;10521171;28;20558;-32
2023/09/07 06:37:21;;;;;;;3.88;2.67;;;29.20;62.50;;;;;;10522275;28;20057;-36
2023/09/07 06:42:23;;;;;;;5.55;2.80;;;29.20;62.50;;;;;;10510680;28;20472;-35
2023/09/07 06:47:26;;;;;;;5.47;2.95;;;29.20;62.40;;;;;;10525477;28;20044;-33
2023/09/07 06:52:28;;;;;;;3.45;2.65;;;29.20;62.30;;;;;;10525697;28;20818;-36
2023/09/07 06:57:30;;;;;;;4.20;2.40;;;29.20;62.30;;;;;;10524617;28;20043;-45
2023/09/07 07:02:34;;;;;;;5.35;2.42;;;29.20;62.10;;;;;;10528321;28;20108;-37
2023/09/07 07:07:35;;;;;;;3.65;2.80;;;29.20;62.20;;;;;;10521382;28;20044;-31
2023/09/07 07:12:38;;;;;;;4.07;2.70;;;29.20;62.10;;;;;;10506017;28;20137;-31
2023/09/07 07:17:41;;;;;;;3.65;2.85;;;29.20;62.10;;;;;;10529789;28;20046;-33
2023/09/07 07:22:43;;;;;;;5.50;2.50;;;29.30;62.10;;;;;;10521127;28;20474;-35
2023/09/07 07:27:45;;;;;;;6.43;2.75;;;29.30;62.20;;;;;;10514773;28;20452;-33
2023/09/07 07:32:50;;;;;;;4.65;2.75;;;29.30;62.20;;;;;;10519965;28;20087;-31
2023/09/07 07:37:52;;;;;;;4.20;2.70;;;29.30;62.20;;;;;;10516603;28;20044;-37
2023/09/07 07:42:54;;;;;;;3.83;2.90;;;29.30;62.30;;;;;;10527787;28;20079;-33
2023/09/07 07:47:57;;;;;;;3.30;2.90;;;29.40;62.40;;;;;;10523057;28;20656;-32
2023/09/07 07:52:59;;;;;;;4.20;2.70;;;29.40;62.30;;;;;;10524518;28;20131;-31
2023/09/07 07:58:01;;;;;;;4.20;2.60;;;29.40;62.30;;;;;;10529837;28;20242;-36
2023/09/07 08:03:06;;;;;;;3.25;2.63;;;29.40;62.30;;;;;;10527872;28;20063;-38
2023/09/07 08:08:08;;;;;;;4.35;2.47;;;29.50;62.30;;;;;;10532489;28;20484;-37
2023/09/07 08:13:10;;;;;;;20.95;7.80;;;29.50;62.30;;;;;;10536535;28;20386;-32
2023/09/07 08:18:13;;;;;;;32.83;12.02;;;29.50;62.30;;;;;;10516569;28;20143;-32
2023/09/07 08:23:15;;;;;;;39.42;14.52;;;29.50;63.30;;;;;;10527238;28;20043;-35
2023/09/07 08:28:18;;;;;;;36.10;13.15;;;29.60;62.50;;;;;;10527100;28;20094;-41
2023/09/07 08:33:23;;;;;;;34.60;12.32;;;29.60;62.60;;;;;;10531140;28;20044;-32
2023/09/07 08:38:27;;;;;;;30.67;11.85;;;29.60;62.70;;;;;;10523022;28;20514;-31
2023/09/07 08:43:31;;;;;;;23.10;9.27;;;29.60;62.70;;;;;;10543318;28;20055;-33
2023/09/07 08:48:36;;;;;;;22.52;8.82;;;29.80;62.10;;;;;;10531868;28;20052;-36
2023/09/07 08:53:39;;;;;;;18.80;7.50;;;29.80;62.30;;;;;;10532347;28;20040;-33
2023/09/07 08:58:41;;;;;;;16.88;7.22;;;29.80;62.40;;;;;;10529227;28;20155;-35
2023/09/07 09:03:46;;;;;;;12.88;6.28;;;29.70;62.40;;;;;;10526933;28;20826;-39
2023/09/07 09:08:49;;;;;;;13.77;5.95;;;29.80;62.00;;;;;;10524943;28;20497;-34
2023/09/07 09:13:53;;;;;;;12.63;5.88;;;29.80;62.20;;;;;;10516513;28;20056;-36
2023/09/07 09:18:57;;;;;;;10.13;5.40;;;29.90;61.70;;;;;;10531784;28;20053;-34
2023/09/07 09:24:00;;;;;;;10.05;4.22;;;29.90;61.80;;;;;;10530241;28;20143;-33
2023/09/07 09:29:01;;;;;;;9.20;4.60;;;30.40;60.20;;;;;;10524133;28;20048;-32
2023/09/07 09:34:05;;;;;;;6.93;4.32;;;30.00;61.00;;;;;;10516642;28;20140;-36
2023/09/07 09:39:07;;;;;;;7.55;4.15;;;29.90;61.30;;;;;;10536048;28;20094;-39
2023/09/07 09:44:09;;;;;;;5.65;3.53;;;30.00;60.20;;;;;;10532649;28;20043;-37
2023/09/07 09:49:14;;;;;;;5.60;3.58;;;29.70;61.50;;;;;;10540125;28;20109;-41
2023/09/07 09:54:17;;;;;;;6.18;3.60;;;29.80;61.40;;;;;;10531381;28;20450;-37
2023/09/07 09:59:19;;;;;;;9.48;4.45;;;30.00;60.50;;;;;;10520503;28;20071;-39
2023/09/07 10:04:23;;;;;;;4.80;3.50;;;29.10;62.00;;;;;;10544390;28;20039;-39
2023/09/07 10:09:30;;;;;;;7.35;3.60;;;29.80;61.20;;;;;;10534046;28;20067;-38
2023/09/07 10:14:39;;;;;;;6.50;3.33;;;29.50;59.50;;;;;;10517435;28;20617;-31
2023/09/07 10:19:50;;;;;;;12.40;3.53;;;29.00;61.60;;;;;;10522190;28;20051;-36
2023/09/07 10:24:58;;;;;;;6.00;3.25;;;28.60;62.80;;;;;;10524474;28;20453;-36
2023/09/07 10:30:00;;;;;;;4.75;2.92;;;29.00;63.40;;;;;;10516159;28;20047;-34
2023/09/07 10:35:14;;;;;;;9.55;4.65;;;29.10;62.80;;;;;;10526387;28;20050;-33
2023/09/07 10:40:21;;;;;;;8.35;4.03;;;28.70;62.50;;;;;;10523280;28;20072;-36
2023/09/07 10:45:22;;;;;;;6.78;3.67;;;28.40;61.50;;;;;;10529280;28;20059;-37
2023/09/07 10:50:26;;;;;;;6.63;3.45;;;29.20;62.70;;;;;;10532284;28;20040;-39
2023/09/07 10:55:28;;;;;;;3.83;2.88;;;29.10;61.80;;;;;;10525447;28;20546;-41
2023/09/07 11:00:30;;;;;;;12.55;3.20;;;28.70;62.60;;;;;;10531344;28;20036;-33
2023/09/07 11:05:34;;;;;;;5.25;3.30;;;28.30;63.90;;;;;;10531260;28;20068;-35
2023/09/07 11:10:38;;;;;;;7.32;3.10;;;28.50;61.20;;;;;;10524293;28;20048;-32
2023/09/07 11:15:40;;;;;;;4.32;2.72;;;29.10;60.60;;;;;;10533604;28;20131;-36
2023/09/07 11:20:43;;;;;;;9.32;3.53;;;28.80;62.20;;;;;;10520811;28;20135;-39
2023/09/07 11:25:46;;;;;;;6.93;3.10;;;28.70;60.80;;;;;;10526293;28;20135;-31
2023/09/07 11:30:52;;;;;;;5.07;2.10;;;29.30;59.90;;;;;;10520884;28;20120;-36
2023/09/07 11:35:55;;;;;;;3.25;2.50;;;30.60;60.10;;;;;;10534903;28;20056;-33
2023/09/07 11:40:57;;;;;;;5.55;2.95;;;30.20;59.80;;;;;;10525210;28;20072;-35
2023/09/07 11:46:01;;;;;;;5.40;3.05;;;30.10;57.40;;;;;;10524894;28;20151;-37
2023/09/07 11:51:04;;;;;;;5.68;2.40;;;30.10;57.60;;;;;;10534135;28;20386;-35
2023/09/07 11:56:06;;;;;;;7.47;2.63;;;31.50;56.50;;;;;;10526006;28;20415;-35
2023/09/07 12:01:08;;;;;;;6.15;2.90;;;31.10;56.50;;;;;;10535226;28;20440;-33
2023/09/07 12:06:12;;;;;;;6.63;2.83;;;31.10;55.30;;;;;;10535566;28;20144;-36
2023/09/07 12:11:14;;;;;;;5.47;2.50;;;30.80;56.60;;;;;;10542009;28;20044;-35
2023/09/07 12:16:16;;;;;;;2.85;2.42;;;31.50;54.90;;;;;;10534018;28;20067;-33
2023/09/07 12:21:20;;;;;;;4.97;2.45;;;31.90;54.80;;;;;;10533568;28;20063;-41
2023/09/07 12:26:22;;;;;;;9.45;3.10;;;31.90;53.40;;;;;;10521201;28;20644;-38
2023/09/07 12:31:24;;;;;;;5.47;2.80;;;32.00;54.70;;;;;;10535286;28;20068;-32
2023/09/07 12:36:29;;;;;;;10.27;3.10;;;32.20;52.30;;;;;;10520121;28;20060;-39
2023/09/07 12:41:31;;;;;;;5.15;2.95;;;33.20;51.20;;;;;;10530892;28;20075;-31
2023/09/07 12:46:33;;;;;;;4.05;2.53;;;32.90;51.80;;;;;;10526335;28;20109;-38
2023/09/07 12:51:36;;;;;;;4.88;2.60;;;33.20;51.40;;;;;;10528389;28;20763;-32
2023/09/07 12:56:38;;;;;;;7.53;2.80;;;33.40;50.20;;;;;;10528837;28;20052;-37
2023/09/07 13:01:40;;;;;;;4.05;2.60;;;33.50;49.20;;;;;;10523886;28;20131;-29
2023/09/07 13:06:43;;;;;;;8.98;2.78;;;34.20;50.20;;;;;;10515819;28;20455;-33
2023/09/07 13:11:45;;;;;;;4.03;2.80;;;34.40;48.80;;;;;;10514785;28;20581;-34
2023/09/07 13:16:47;;;;;;;3.20;2.30;;;34.70;48.60;;;;;;10516659;28;20044;-32
2023/09/07 13:21:51;;;;;;;3.65;2.55;;;35.10;49.00;;;;;;10535447;28;20261;-34
2023/09/07 13:26:53;;;;;;;3.83;2.35;;;35.40;47.90;;;;;;10536378;28;20144;-35
2023/09/07 13:31:54;;;;;;;3.17;2.25;;;35.60;48.30;;;;;;10525059;28;20143;-35
2023/09/07 13:36:58;;;;;;;5.75;2.83;;;36.10;46.80;;;;;;10518333;28;20142;-31
2023/09/07 13:41:59;;;;;;;7.28;2.40;;;36.80;45.30;;;;;;10514827;28;20070;-37
2023/09/07 13:47:01;;;;;;;9.70;2.45;;;36.50;45.30;;;;;;10521991;28;20070;-33
2023/09/07 13:52:05;;;;;;;3.65;2.45;;;36.90;45.70;;;;;;10521135;28;20441;-35
2023/09/07 13:57:07;;;;;;;7.93;2.83;;;37.50;45.50;;;;;;10524597;28;20143;-32
2023/09/07 14:02:08;;;;;;;2.83;2.30;;;37.50;45.70;;;;;;10526324;28;21150;-34
2023/09/07 14:07:12;;;;;;;4.05;2.20;;;38.00;47.20;;;;;;10531496;28;20163;-36
2023/09/07 14:12:14;;;;;;;2.75;1.98;;;38.50;43.10;;;;;;10518216;28;20155;-35
2023/09/07 14:17:17;;;;;;;3.05;2.25;;;38.80;46.10;;;;;;10521879;28;20146;-34
2023/09/07 14:22:21;;;;;;;2.63;1.90;;;37.20;46.10;;;;;;10526411;28;20516;-33
2023/09/07 14:27:24;;;;;;;4.68;2.67;;;36.40;49.00;;;;;;10525155;28;20067;-32
2023/09/07 14:32:25;;;;;;;2.15;1.67;;;36.90;47.60;;;;;;10530165;28;20400;-35
2023/09/07 14:37:29;;;;;;;1.90;1.70;;;37.20;48.70;;;;;;10522230;28;20138;-36
2023/09/07 14:42:31;;;;;;;2.95;1.90;;;36.60;47.60;;;;;;10515691;28;20052;-31
2023/09/07 14:47:33;;;;;;;3.28;2.20;;;35.50;51.40;;;;;;10525124;28;20480;-33
2023/09/07 14:52:40;;;;;;;3.35;2.10;;;36.50;49.10;;;;;;10515300;28;20074;-32
2023/09/07 14:57:42;;;;;;;4.32;2.60;;;37.20;46.00;;;;;;10513581;28;20055;-35
2023/09/07 15:02:44;;;;;;;2.28;1.63;;;36.60;45.00;;;;;;10515666;28;20052;-31
2023/09/07 15:07:47;;;;;;;5.18;3.85;;;36.30;48.60;;;;;;10509493;28;20552;-33
2023/09/07 15:12:49;;;;;;;7.85;3.53;;;37.10;46.80;;;;;;10511400;28;20135;-32
2023/09/07 15:17:51;;;;;;;5.38;1.90;;;38.20;44.20;;;;;;10523361;28;20164;-36
2023/09/07 15:22:54;;;;;;;8.38;4.43;;;37.60;48.20;;;;;;10522271;28;20044;-34
2023/09/07 15:27:56;;;;;;;6.32;5.40;;;38.00;45.10;;;;;;10519568;28;20468;-37
2023/09/07 15:32:58;;;;;;;9.80;8.13;;;38.60;46.50;;;;;;10523391;28;20098;-37
2023/09/07 15:38:02;;;;;;;3.85;3.00;;;37.50;48.40;;;;;;10524861;28;20124;-40
2023/09/07 15:43:04;;;;;;;10.40;4.10;;;37.90;49.00;;;;;;10523328;28;20084;-37
2023/09/07 15:48:06;;;;;;;2.25;2.05;;;39.30;46.50;;;;;;10526559;28;20101;-37
2023/09/07 15:53:09;;;;;;;2.70;2.50;;;39.50;46.50;;;;;;10521161;28;20167;-36
2023/09/07 15:58:12;;;;;;;10.93;2.80;;;38.30;47.50;;;;;;10536893;28;20080;-35
2023/09/07 16:03:14;;;;;;;7.28;2.60;;;39.50;47.80;;;;;;10516057;28;20051;-33
2023/09/07 16:08:17;;;;;;;2.17;1.92;;;38.30;48.40;;;;;;10529929;28;20052;-33
2023/09/07 16:13:19;;;;;;;2.72;2.08;;;38.60;49.40;;;;;;10520588;28;20052;-35
2023/09/07 16:18:21;;;;;;;2.35;2.13;;;39.40;48.10;;;;;;10521613;28;20058;-32
2023/09/07 16:23:24;;;;;;;4.25;2.20;;;39.80;48.60;;;;;;10531897;28;20128;-36
2023/09/07 16:28:26;;;;;;;3.85;2.40;;;38.60;50.40;;;;;;10511559;28;20179;-36
2023/09/07 16:33:28;;;;;;;4.15;2.40;;;39.70;48.40;;;;;;10525905;28;20056;-32
2023/09/07 16:38:31;;;;;;;5.13;2.53;;;38.60;53.10;;;;;;10510938;28;20068;-31
2023/09/07 16:43:33;;;;;;;3.75;2.10;;;39.50;48.20;;;;;;10535415;28;20040;-34
2023/09/07 16:48:34;;;;;;;8.73;3.58;;;38.50;49.30;;;;;;10529410;28;20087;-36
2023/09/07 16:53:38;;;;;;;4.97;3.53;;;38.50;50.00;;;;;;10534236;28;20150;-36
2023/09/07 16:58:42;;;;;;;2.53;1.98;;;40.50;49.20;;;;;;10525361;28;20056;-37
2023/09/07 17:03:44;;;;;;;2.22;1.95;;;41.00;49.10;;;;;;10518330;28;20056;-34
2023/09/07 17:08:47;;;;;;;2.47;2.03;;;40.00;50.00;;;;;;10513145;28;20560;-34
2023/09/07 17:13:49;;;;;;;1.65;1.52;;;41.00;50.30;;;;;;10519504;28;20087;-35
2023/09/07 17:18:51;;;;;;;2.28;1.63;;;40.10;51.10;;;;;;10539298;28;20561;-31
2023/09/07 17:23:54;;;;;;;1.85;1.60;;;38.80;51.30;;;;;;10523561;28;20748;-32
2023/09/07 17:28:56;;;;;;;3.88;1.88;;;39.40;52.30;;;;;;10531646;28;20565;-36
2023/09/07 17:33:58;;;;;;;2.10;1.50;;;39.50;53.70;;;;;;10516962;28;20044;-35
2023/09/07 17:39:01;;;;;;;2.58;2.20;;;39.50;53.80;;;;;;10527706;28;20143;-35
2023/09/07 17:44:03;;;;;;;4.03;1.92;;;39.00;54.00;;;;;;10526425;28;20438;-39
2023/09/07 17:49:05;;;;;;;2.78;2.15;;;38.30;55.20;;;;;;10516618;28;20052;-38
2023/09/07 17:54:08;;;;;;;2.05;1.58;;;38.30;56.50;;;;;;10513972;28;20052;-35
2023/09/07 17:59:10;;;;;;;2.28;1.55;;;38.00;57.40;;;;;;10532079;28;20155;-32
2023/09/07 18:04:12;;;;;;;2.38;1.65;;;37.40;56.10;;;;;;10518404;28;20067;-33
2023/09/07 18:09:15;;;;;;;2.35;1.70;;;37.50;57.50;;;;;;10515731;28;20040;-35
2023/09/07 18:14:17;;;;;;;1.67;1.58;;;37.50;61.10;;;;;;10521880;28;20060;-31
2023/09/07 18:19:19;;;;;;;2.28;1.60;;;37.40;59.90;;;;;;10530116;28;20636;-32
2023/09/07 18:24:22;;;;;;;5.93;2.40;;;37.40;60.00;;;;;;10518822;28;20126;-34
2023/09/07 18:29:24;;;;;;;2.22;1.67;;;37.10;60.70;;;;;;10531335;28;20048;-32
2023/09/07 18:34:26;;;;;;;2.28;1.60;;;36.70;59.10;;;;;;10520649;28;20146;-35
2023/09/07 18:39:29;;;;;;;2.00;1.85;;;36.70;60.00;;;;;;10525231;28;20514;-38
2023/09/07 18:44:31;;;;;;;3.33;1.80;;;36.50;59.30;;;;;;10520140;28;20086;-32
2023/09/07 18:49:33;;;;;;;2.10;1.63;;;36.30;59.00;;;;;;10522150;28;20148;-36
2023/09/07 18:54:36;;;;;;;1.90;1.50;;;36.20;59.10;;;;;;10501118;28;20051;-35
2023/09/07 18:59:39;;;;;;;2.40;1.65;;;36.10;59.40;;;;;;10528946;28;20041;-37
2023/09/07 19:04:41;;;;;;;2.15;1.70;;;35.90;59.40;;;;;;10521129;28;20404;-31
2023/09/07 19:09:44;;;;;;;3.75;1.75;;;35.80;59.50;;;;;;10518593;28;20134;-34
2023/09/07 19:14:46;;;;;;;3.03;2.15;;;35.90;61.10;;;;;;10522990;28;20140;-36
2023/09/07 19:19:48;;;;;;;2.47;1.77;;;35.80;60.40;;;;;;10520011;28;20044;-35
2023/09/07 19:24:53;;;;;;;1.98;1.58;;;35.60;60.00;;;;;;10517704;28;20170;-32
2023/09/07 19:29:56;;;;;;;3.38;1.90;;;35.50;60.00;;;;;;10516171;28;20076;-32
2023/09/07 19:34:57;;;;;;;2.17;1.98;;;35.40;60.90;;;;;;10510119;28;20055;-39
2023/09/07 19:40:01;;;;;;;4.35;2.30;;;35.30;61.20;;;;;;10509443;28;20135;-37
2023/09/07 19:45:04;;;;;;;2.72;1.83;;;35.20;61.30;;;;;;10527800;28;20055;-42
2023/09/07 19:50:08;;;;;;;2.70;2.45;;;35.10;61.50;;;;;;10519000;28;20753;-36
2023/09/07 19:55:13;;;;;;;2.42;2.20;;;35.10;61.70;;;;;;10526944;28;20273;-39
2023/09/07 20:00:15;;;;;;;5.55;2.55;;;34.80;60.90;;;;;;10527729;28;20043;-32
2023/09/07 20:05:17;;;;;;;4.03;2.22;;;34.60;60.40;;;;;;10519899;28;20210;-30
2023/09/07 20:10:23;;;;;;;8.68;3.30;;;34.40;60.00;;;;;;10540762;28;20044;-32
2023/09/07 20:15:25;;;;;;;7.18;3.00;;;34.30;60.30;;;;;;10526557;28;20837;-32
2023/09/07 20:20:27;;;;;;;7.07;3.08;;;34.10;59.60;;;;;;10526409;28;20131;-35
2023/09/07 20:25:30;;;;;;;8.32;3.40;;;34.10;59.60;;;;;;10520342;28;20411;-37
2023/09/07 20:30:33;;;;;;;13.18;3.45;;;34.00;59.60;;;;;;10529010;28;20067;-32
2023/09/07 20:35:35;;;;;;;10.65;4.20;;;33.80;59.50;;;;;;10515427;28;20139;-38
2023/09/07 20:40:38;;;;;;;11.45;4.20;;;33.80;59.40;;;;;;10515861;28;20079;-31
2023/09/07 20:45:41;;;;;;;14.18;4.40;;;33.70;59.30;;;;;;10517943;28;20040;-40
2023/09/07 20:50:43;;;;;;;12.40;4.32;;;33.60;59.50;;;;;;10525950;28;20057;-34
2023/09/07 20:55:47;;;;;;;16.35;4.40;;;33.50;59.20;;;;;;10520455;28;20136;-35
2023/09/07 21:00:49;;;;;;;18.65;4.57;;;33.50;59.30;;;;;;10528659;28;20040;-34
2023/09/07 21:05:51;;;;;;;9.82;4.53;;;33.40;59.40;;;;;;10541127;28;20074;-33
2023/09/07 21:10:54;;;;;;;7.90;3.33;;;33.40;59.40;;;;;;10533999;28;20055;-38
2023/09/07 21:15:56;;;;;;;9.35;3.95;;;33.40;59.60;;;;;;10519323;28;20400;-35
2023/09/07 21:20:58;;;;;;;8.43;3.72;;;33.20;59.50;;;;;;10511824;28;20767;-32
2023/09/07 21:26:01;;;;;;;7.80;3.75;;;33.20;59.70;;;;;;10526997;28;20064;-35
2023/09/07 21:31:03;;;;;;;9.25;3.92;;;33.10;59.50;;;;;;10517819;28;20051;-33
2023/09/07 21:36:05;;;;;;;12.65;3.33;;;33.10;59.60;;;;;;10526554;28;20134;-33
2023/09/07 21:41:08;;;;;;;5.82;3.40;;;33.00;59.70;;;;;;10533309;28;20048;-37
2023/09/07 21:46:10;;;;;;;7.07;3.75;;;33.00;59.70;;;;;;10502697;28;20063;-35
2023/09/07 21:51:12;;;;;;;5.40;3.10;;;32.90;59.70;;;;;;10526780;28;20058;-38
2023/09/07 21:56:15;;;;;;;7.97;3.15;;;32.90;60.30;;;;;;10528508;28;20048;-34
2023/09/07 22:01:17;;;;;;;5.32;3.00;;;32.70;59.60;;;;;;10533935;28;20399;-32
2023/09/07 22:06:19;;;;;;;8.30;3.03;;;32.70;59.70;;;;;;10516388;28;20047;-33
2023/09/07 22:11:22;;;;;;;8.57;3.28;;;32.60;59.60;;;;;;10521461;28;20510;-33
2023/09/07 22:16:24;;;;;;;7.40;3.40;;;32.50;59.60;;;;;;10522337;28;20489;-35
2023/09/07 22:21:25;;;;;;;4.43;3.33;;;32.50;59.60;;;;;;10526405;28;20150;-36
2023/09/07 22:26:29;;;;;;;3.92;3.08;;;32.50;59.70;;;;;;10522955;28;20808;-36
2023/09/07 22:31:30;;;;;;;4.47;2.80;;;32.50;59.70;;;;;;10535419;28;20044;-35
2023/09/07 22:36:32;;;;;;;4.88;3.20;;;32.40;59.80;;;;;;10526047;28;20155;-36
2023/09/07 22:41:35;;;;;;;4.20;3.10;;;32.30;59.70;;;;;;10526242;28;20490;-38
2023/09/07 22:46:37;;;;;;;4.50;3.30;;;32.30;59.80;;;;;;10528101;28;20452;-34
2023/09/07 22:51:39;;;;;;;4.45;3.42;;;32.30;59.80;;;;;;10530043;28;20067;-32
2023/09/07 22:56:42;;;;;;;4.55;3.40;;;32.30;59.90;;;;;;10519285;28;20112;-34
2023/09/07 23:01:44;;;;;;;6.82;3.60;;;32.20;59.90;;;;;;10520241;28;20059;-33
2023/09/07 23:06:46;;;;;;;4.40;3.20;;;32.10;59.80;;;;;;10527688;28;20067;-34
2023/09/07 23:11:49;;;;;;;6.57;2.97;;;32.10;59.90;;;;;;10528431;28;20078;-35
2023/09/07 23:16:52;;;;;;;3.67;3.17;;;32.10;59.90;;;;;;10519356;28;20374;-34
2023/09/07 23:21:54;;;;;;;5.72;3.78;;;32.00;60.00;;;;;;10526454;28;20040;-38
2023/09/07 23:26:57;;;;;;;3.75;3.25;;;31.90;59.90;;;;;;10525892;28;20131;-39
2023/09/07 23:31:59;;;;;;;5.05;3.08;;;31.90;59.90;;;;;;10524051;28;20131;-35
2023/09/07 23:37:01;;;;;;;5.53;3.78;;;31.90;60.00;;;;;;10531211;28;20080;-38
2023/09/07 23:42:05;;;;;;;7.45;3.22;;;31.90;60.00;;;;;;10536261;28;20087;-37
2023/09/07 23:47:06;;;;;;;6.72;3.83;;;31.80;60.00;;;;;;10525716;28;20063;-34
2023/09/07 23:52:08;;;;;;;5.72;3.45;;;31.80;60.10;;;;;;10536161;28;20521;-40
2023/09/07 23:57:11;;;;;;;3.97;3.58;;;31.70;60.10;;;;;;10536700;28;20044;-36
